sensor_id;sensor_type;location;lat;lon;timestamp;P1;durP1;ratioP1;P2;durP2;ratioP2
79149;SDS011;68563;45.644;13.782;2024-02-23T00:00:36;2.85;;;1.75;;
79149;SDS011;68563;45.644;13.782;2024-02-23T00:03:02;4.70;;;1.90;;
79149;SDS011;68563;45.644;13.782;2024-02-23T00:05:27;4.20;;;1.60;;
79149;SDS011;68563;45.644;13.782;2024-02-23T00:07:53;3.90;;;1.85;;
79149;SDS011;68563;45.644;13.782;2024-02-23T00:10:18;3.88;;;1.65;;
79149;SDS011;68563;45.644;13.782;2024-02-23T00:12:43;2.50;;;1.63;;
79149;SDS011;68563;45.644;13.782;2024-02-23T00:15:09;3.80;;;1.80;;
79149;SDS011;68563;45.644;13.782;2024-02-23T00:17:35;4.57;;;2.00;;
79149;SDS011;68563;45.644;13.782;2024-02-23T00:20:01;3.38;;;1.90;;
79149;SDS011;68563;45.644;13.782;2024-02-23T00:22:26;4.30;;;1.60;;
79149;SDS011;68563;45.644;13.782;2024-02-23T00:24:51;3.42;;;1.70;;
79149;SDS011;68563;45.644;13.782;2024-02-23T00:27:17;3.28;;;1.67;;
79149;SDS011;68563;45.644;13.782;2024-02-23T00:29:42;3.22;;;1.58;;
79149;SDS011;68563;45.644;13.782;2024-02-23T00:32:07;4.68;;;1.70;;
79149;SDS011;68563;45.644;13.782;2024-02-23T00:34:33;4.13;;;1.77;;
79149;SDS011;68563;45.644;13.782;2024-02-23T00:36:58;3.17;;;1.80;;
79149;SDS011;68563;45.644;13.782;2024-02-23T00:39:24;5.13;;;1.75;;
79149;SDS011;68563;45.644;13.782;2024-02-23T00:41:49;5.55;;;1.80;;
79149;SDS011;68563;45.644;13.782;2024-02-23T00:44:15;2.33;;;1.55;;
79149;SDS011;68563;45.644;13.782;2024-02-23T00:46:40;4.70;;;1.55;;
79149;SDS011;68563;45.644;13.782;2024-02-23T00:49:06;1.98;;;1.55;;
79149;SDS011;68563;45.644;13.782;2024-02-23T00:51:31;4.40;;;1.95;;
79149;SDS011;68563;45.644;13.782;2024-02-23T00:53:57;2.58;;;1.63;;
79149;SDS011;68563;45.644;13.782;2024-02-23T00:56:22;3.80;;;1.77;;
79149;SDS011;68563;45.644;13.782;2024-02-23T00:58:48;3.10;;;1.42;;
79149;SDS011;68563;45.644;13.782;2024-02-23T01:01:13;3.00;;;1.42;;
79149;SDS011;68563;45.644;13.782;2024-02-23T01:03:39;4.38;;;1.50;;
79149;SDS011;68563;45.644;13.782;2024-02-23T01:06:04;2.38;;;1.50;;
79149;SDS011;68563;45.644;13.782;2024-02-23T01:08:30;3.45;;;1.73;;
79149;SDS011;68563;45.644;13.782;2024-02-23T01:10:56;3.45;;;1.45;;
79149;SDS011;68563;45.644;13.782;2024-02-23T01:13:21;2.85;;;1.63;;
79149;SDS011;68563;45.644;13.782;2024-02-23T01:15:47;6.20;;;1.63;;
79149;SDS011;68563;45.644;13.782;2024-02-23T01:18:12;3.63;;;1.58;;
79149;SDS011;68563;45.644;13.782;2024-02-23T01:20:38;3.63;;;1.60;;
79149;SDS011;68563;45.644;13.782;2024-02-23T01:23:03;2.55;;;1.58;;
79149;SDS011;68563;45.644;13.782;2024-02-23T01:25:28;3.88;;;1.70;;
79149;SDS011;68563;45.644;13.782;2024-02-23T01:27:54;2.38;;;1.60;;
79149;SDS011;68563;45.644;13.782;2024-02-23T01:30:19;3.35;;;1.50;;
79149;SDS011;68563;45.644;13.782;2024-02-23T01:32:45;3.10;;;1.52;;
79149;SDS011;68563;45.644;13.782;2024-02-23T01:35:11;3.83;;;1.77;;
79149;SDS011;68563;45.644;13.782;2024-02-23T01:37:36;4.80;;;1.85;;
79149;SDS011;68563;45.644;13.782;2024-02-23T01:40:02;6.05;;;1.88;;
79149;SDS011;68563;45.644;13.782;2024-02-23T01:42:28;3.72;;;1.73;;
79149;SDS011;68563;45.644;13.782;2024-02-23T01:44:54;2.60;;;1.60;;
79149;SDS011;68563;45.644;13.782;2024-02-23T01:47:21;5.40;;;1.60;;
79149;SDS011;68563;45.644;13.782;2024-02-23T01:49:48;2.55;;;1.40;;
79149;SDS011;68563;45.644;13.782;2024-02-23T01:52:15;4.78;;;1.73;;
79149;SDS011;68563;45.644;13.782;2024-02-23T01:54:41;4.40;;;1.67;;
79149;SDS011;68563;45.644;13.782;2024-02-23T01:57:07;2.55;;;1.40;;
79149;SDS011;68563;45.644;13.782;2024-02-23T01:59:34;5.45;;;2.25;;
79149;SDS011;68563;45.644;13.782;2024-02-23T02:02:02;3.33;;;1.70;;
79149;SDS011;68563;45.644;13.782;2024-02-23T02:04:29;2.45;;;1.70;;
79149;SDS011;68563;45.644;13.782;2024-02-23T02:06:54;3.22;;;1.52;;
79149;SDS011;68563;45.644;13.782;2024-02-23T02:09:20;3.45;;;1.73;;
79149;SDS011;68563;45.644;13.782;2024-02-23T02:11:46;3.30;;;1.42;;
79149;SDS011;68563;45.644;13.782;2024-02-23T02:14:12;3.65;;;1.40;;
79149;SDS011;68563;45.644;13.782;2024-02-23T02:16:38;2.75;;;1.38;;
79149;SDS011;68563;45.644;13.782;2024-02-23T02:19:04;4.07;;;1.33;;
79149;SDS011;68563;45.644;13.782;2024-02-23T02:21:30;5.28;;;1.60;;
79149;SDS011;68563;45.644;13.782;2024-02-23T02:23:56;3.17;;;1.50;;
79149;SDS011;68563;45.644;13.782;2024-02-23T02:26:22;4.50;;;1.88;;
79149;SDS011;68563;45.644;13.782;2024-02-23T02:28:47;3.72;;;1.90;;
79149;SDS011;68563;45.644;13.782;2024-02-23T02:31:12;4.18;;;1.60;;
79149;SDS011;68563;45.644;13.782;2024-02-23T02:33:39;4.43;;;1.42;;
79149;SDS011;68563;45.644;13.782;2024-02-23T02:36:05;3.05;;;1.60;;
79149;SDS011;68563;45.644;13.782;2024-02-23T02:38:31;4.80;;;2.08;;
79149;SDS011;68563;45.644;13.782;2024-02-23T02:40:58;3.83;;;1.70;;
79149;SDS011;68563;45.644;13.782;2024-02-23T02:43:25;2.95;;;1.90;;
79149;SDS011;68563;45.644;13.782;2024-02-23T02:45:51;3.83;;;1.70;;
79149;SDS011;68563;45.644;13.782;2024-02-23T02:48:16;3.60;;;1.80;;
79149;SDS011;68563;45.644;13.782;2024-02-23T02:50:42;4.38;;;1.67;;
79149;SDS011;68563;45.644;13.782;2024-02-23T02:53:07;3.20;;;1.65;;
79149;SDS011;68563;45.644;13.782;2024-02-23T02:55:33;5.97;;;1.90;;
79149;SDS011;68563;45.644;13.782;2024-02-23T02:57:58;3.60;;;1.60;;
79149;SDS011;68563;45.644;13.782;2024-02-23T03:00:24;2.10;;;1.42;;
79149;SDS011;68563;45.644;13.782;2024-02-23T03:02:49;4.70;;;1.83;;
79149;SDS011;68563;45.644;13.782;2024-02-23T03:05:14;3.03;;;1.60;;
79149;SDS011;68563;45.644;13.782;2024-02-23T03:07:40;2.83;;;1.63;;
79149;SDS011;68563;45.644;13.782;2024-02-23T03:10:06;2.05;;;1.58;;
79149;SDS011;68563;45.644;13.782;2024-02-23T03:12:32;3.85;;;1.60;;
79149;SDS011;68563;45.644;13.782;2024-02-23T03:14:57;6.10;;;1.65;;
79149;SDS011;68563;45.644;13.782;2024-02-23T03:17:23;2.85;;;1.55;;
79149;SDS011;68563;45.644;13.782;2024-02-23T03:19:48;2.28;;;1.40;;
79149;SDS011;68563;45.644;13.782;2024-02-23T03:22:15;4.15;;;1.70;;
79149;SDS011;68563;45.644;13.782;2024-02-23T03:24:40;1.83;;;1.23;;
79149;SDS011;68563;45.644;13.782;2024-02-23T03:27:06;3.90;;;1.83;;
79149;SDS011;68563;45.644;13.782;2024-02-23T03:29:31;2.47;;;1.40;;
79149;SDS011;68563;45.644;13.782;2024-02-23T03:31:57;5.03;;;1.40;;
79149;SDS011;68563;45.644;13.782;2024-02-23T03:34:22;2.13;;;1.35;;
79149;SDS011;68563;45.644;13.782;2024-02-23T03:36:48;3.33;;;1.48;;
79149;SDS011;68563;45.644;13.782;2024-02-23T03:39:13;2.45;;;1.38;;
79149;SDS011;68563;45.644;13.782;2024-02-23T03:41:39;2.05;;;1.45;;
79149;SDS011;68563;45.644;13.782;2024-02-23T03:44:04;4.85;;;2.00;;
79149;SDS011;68563;45.644;13.782;2024-02-23T03:46:30;5.18;;;1.70;;
79149;SDS011;68563;45.644;13.782;2024-02-23T03:48:55;3.10;;;1.63;;
79149;SDS011;68563;45.644;13.782;2024-02-23T03:51:21;7.30;;;1.77;;
79149;SDS011;68563;45.644;13.782;2024-02-23T03:53:47;4.28;;;1.50;;
79149;SDS011;68563;45.644;13.782;2024-02-23T03:56:12;3.83;;;1.40;;
79149;SDS011;68563;45.644;13.782;2024-02-23T03:58:38;4.05;;;1.58;;
79149;SDS011;68563;45.644;13.782;2024-02-23T04:01:03;4.53;;;1.50;;
79149;SDS011;68563;45.644;13.782;2024-02-23T04:03:28;2.42;;;1.50;;
79149;SDS011;68563;45.644;13.782;2024-02-23T04:05:54;3.28;;;1.40;;
79149;SDS011;68563;45.644;13.782;2024-02-23T04:08:19;5.15;;;1.83;;
79149;SDS011;68563;45.644;13.782;2024-02-23T04:10:45;3.95;;;1.55;;
79149;SDS011;68563;45.644;13.782;2024-02-23T04:13:10;4.18;;;1.60;;
79149;SDS011;68563;45.644;13.782;2024-02-23T04:15:38;3.08;;;1.30;;
79149;SDS011;68563;45.644;13.782;2024-02-23T04:18:04;2.78;;;1.45;;
79149;SDS011;68563;45.644;13.782;2024-02-23T04:20:30;4.13;;;1.33;;
79149;SDS011;68563;45.644;13.782;2024-02-23T04:22:55;4.90;;;1.20;;
79149;SDS011;68563;45.644;13.782;2024-02-23T04:25:21;2.25;;;1.13;;
79149;SDS011;68563;45.644;13.782;2024-02-23T04:27:46;4.18;;;1.58;;
79149;SDS011;68563;45.644;13.782;2024-02-23T04:30:12;4.32;;;1.80;;
79149;SDS011;68563;45.644;13.782;2024-02-23T04:32:38;2.72;;;1.40;;
79149;SDS011;68563;45.644;13.782;2024-02-23T04:35:04;3.63;;;1.23;;
79149;SDS011;68563;45.644;13.782;2024-02-23T04:37:29;4.18;;;1.33;;
79149;SDS011;68563;45.644;13.782;2024-02-23T04:39:55;2.38;;;1.30;;
79149;SDS011;68563;45.644;13.782;2024-02-23T04:42:20;3.42;;;1.30;;
79149;SDS011;68563;45.644;13.782;2024-02-23T04:44:46;3.90;;;1.23;;
79149;SDS011;68563;45.644;13.782;2024-02-23T04:47:11;1.67;;;1.10;;
79149;SDS011;68563;45.644;13.782;2024-02-23T04:49:36;2.35;;;1.23;;
79149;SDS011;68563;45.644;13.782;2024-02-23T04:52:02;2.03;;;1.20;;
79149;SDS011;68563;45.644;13.782;2024-02-23T04:54:28;2.03;;;1.17;;
79149;SDS011;68563;45.644;13.782;2024-02-23T04:56:53;2.15;;;1.13;;
79149;SDS011;68563;45.644;13.782;2024-02-23T04:59:18;5.50;;;1.60;;
79149;SDS011;68563;45.644;13.782;2024-02-23T05:01:44;1.85;;;1.10;;
79149;SDS011;68563;45.644;13.782;2024-02-23T05:04:09;2.50;;;1.08;;
79149;SDS011;68563;45.644;13.782;2024-02-23T05:06:35;4.13;;;1.38;;
79149;SDS011;68563;45.644;13.782;2024-02-23T05:09:00;3.90;;;1.42;;
79149;SDS011;68563;45.644;13.782;2024-02-23T05:11:26;3.47;;;1.27;;
79149;SDS011;68563;45.644;13.782;2024-02-23T05:13:52;2.33;;;1.20;;
79149;SDS011;68563;45.644;13.782;2024-02-23T05:16:17;1.90;;;1.10;;
79149;SDS011;68563;45.644;13.782;2024-02-23T05:18:43;2.15;;;1.10;;
79149;SDS011;68563;45.644;13.782;2024-02-23T05:21:08;2.35;;;1.20;;
79149;SDS011;68563;45.644;13.782;2024-02-23T05:23:34;2.28;;;1.13;;
79149;SDS011;68563;45.644;13.782;2024-02-23T05:26:00;2.08;;;1.10;;
79149;SDS011;68563;45.644;13.782;2024-02-23T05:28:26;2.25;;;1.20;;
79149;SDS011;68563;45.644;13.782;2024-02-23T05:30:51;2.50;;;1.13;;
79149;SDS011;68563;45.644;13.782;2024-02-23T05:33:16;1.98;;;1.00;;
79149;SDS011;68563;45.644;13.782;2024-02-23T05:35:45;2.88;;;1.08;;
79149;SDS011;68563;45.644;13.782;2024-02-23T05:38:11;3.67;;;1.10;;
79149;SDS011;68563;45.644;13.782;2024-02-23T05:40:36;2.15;;;1.10;;
79149;SDS011;68563;45.644;13.782;2024-02-23T05:43:02;1.88;;;1.10;;
79149;SDS011;68563;45.644;13.782;2024-02-23T05:45:27;3.38;;;0.95;;
79149;SDS011;68563;45.644;13.782;2024-02-23T05:47:53;3.65;;;1.33;;
79149;SDS011;68563;45.644;13.782;2024-02-23T05:50:18;2.15;;;0.93;;
79149;SDS011;68563;45.644;13.782;2024-02-23T05:52:44;2.53;;;1.30;;
79149;SDS011;68563;45.644;13.782;2024-02-23T05:55:09;2.50;;;0.90;;
79149;SDS011;68563;45.644;13.782;2024-02-23T05:57:35;1.35;;;1.05;;
79149;SDS011;68563;45.644;13.782;2024-02-23T06:00:00;2.67;;;1.05;;
79149;SDS011;68563;45.644;13.782;2024-02-23T06:02:26;3.85;;;1.20;;
79149;SDS011;68563;45.644;13.782;2024-02-23T06:04:51;2.00;;;0.85;;
79149;SDS011;68563;45.644;13.782;2024-02-23T06:07:16;3.85;;;1.30;;
79149;SDS011;68563;45.644;13.782;2024-02-23T06:09:42;1.85;;;0.98;;
79149;SDS011;68563;45.644;13.782;2024-02-23T06:12:08;1.23;;;0.98;;
79149;SDS011;68563;45.644;13.782;2024-02-23T06:14:34;4.78;;;1.02;;
79149;SDS011;68563;45.644;13.782;2024-02-23T06:17:00;3.28;;;1.15;;
79149;SDS011;68563;45.644;13.782;2024-02-23T06:19:25;4.55;;;1.30;;
79149;SDS011;68563;45.644;13.782;2024-02-23T06:21:50;6.10;;;1.40;;
79149;SDS011;68563;45.644;13.782;2024-02-23T06:24:16;2.33;;;1.30;;
79149;SDS011;68563;45.644;13.782;2024-02-23T06:26:42;3.83;;;1.00;;
79149;SDS011;68563;45.644;13.782;2024-02-23T06:29:08;4.20;;;1.10;;
79149;SDS011;68563;45.644;13.782;2024-02-23T06:31:38;6.97;;;1.90;;
79149;SDS011;68563;45.644;13.782;2024-02-23T06:34:04;2.78;;;1.38;;
79149;SDS011;68563;45.644;13.782;2024-02-23T06:36:30;4.80;;;1.63;;
79149;SDS011;68563;45.644;13.782;2024-02-23T06:38:55;2.83;;;1.40;;
79149;SDS011;68563;45.644;13.782;2024-02-23T06:41:21;7.80;;;1.85;;
79149;SDS011;68563;45.644;13.782;2024-02-23T06:43:46;2.67;;;1.42;;
79149;SDS011;68563;45.644;13.782;2024-02-23T06:46:12;5.93;;;1.85;;
79149;SDS011;68563;45.644;13.782;2024-02-23T06:48:37;4.05;;;1.80;;
79149;SDS011;68563;45.644;13.782;2024-02-23T06:51:04;4.55;;;2.00;;
79149;SDS011;68563;45.644;13.782;2024-02-23T06:53:35;3.95;;;1.70;;
79149;SDS011;68563;45.644;13.782;2024-02-23T06:56:00;5.25;;;1.80;;
79149;SDS011;68563;45.644;13.782;2024-02-23T06:58:26;7.50;;;1.95;;
79149;SDS011;68563;45.644;13.782;2024-02-23T07:00:52;7.68;;;1.85;;
79149;SDS011;68563;45.644;13.782;2024-02-23T07:03:17;7.80;;;2.47;;
79149;SDS011;68563;45.644;13.782;2024-02-23T07:05:43;4.95;;;2.13;;
79149;SDS011;68563;45.644;13.782;2024-02-23T07:08:08;4.70;;;2.28;;
79149;SDS011;68563;45.644;13.782;2024-02-23T07:10:34;8.07;;;2.78;;
79149;SDS011;68563;45.644;13.782;2024-02-23T07:12:59;6.78;;;2.28;;
79149;SDS011;68563;45.644;13.782;2024-02-23T07:15:24;8.50;;;2.28;;
79149;SDS011;68563;45.644;13.782;2024-02-23T07:17:51;7.53;;;2.42;;
79149;SDS011;68563;45.644;13.782;2024-02-23T07:20:17;7.03;;;2.60;;
79149;SDS011;68563;45.644;13.782;2024-02-23T07:22:43;7.53;;;2.60;;
79149;SDS011;68563;45.644;13.782;2024-02-23T07:25:09;4.95;;;2.45;;
79149;SDS011;68563;45.644;13.782;2024-02-23T07:27:35;6.57;;;2.83;;
79149;SDS011;68563;45.644;13.782;2024-02-23T07:30:00;7.70;;;2.47;;
79149;SDS011;68563;45.644;13.782;2024-02-23T07:32:27;8.18;;;2.33;;
79149;SDS011;68563;45.644;13.782;2024-02-23T07:34:54;6.50;;;2.60;;
79149;SDS011;68563;45.644;13.782;2024-02-23T07:37:20;9.45;;;2.42;;
79149;SDS011;68563;45.644;13.782;2024-02-23T07:39:45;6.72;;;2.70;;
79149;SDS011;68563;45.644;13.782;2024-02-23T07:42:11;9.07;;;2.67;;
79149;SDS011;68563;45.644;13.782;2024-02-23T07:44:38;7.05;;;2.50;;
79149;SDS011;68563;45.644;13.782;2024-02-23T07:47:03;10.23;;;3.33;;
79149;SDS011;68563;45.644;13.782;2024-02-23T07:49:29;6.00;;;2.45;;
79149;SDS011;68563;45.644;13.782;2024-02-23T07:51:55;7.88;;;2.90;;
79149;SDS011;68563;45.644;13.782;2024-02-23T07:54:20;7.80;;;2.70;;
79149;SDS011;68563;45.644;13.782;2024-02-23T07:56:46;6.88;;;2.80;;
79149;SDS011;68563;45.644;13.782;2024-02-23T07:59:11;6.63;;;2.58;;
79149;SDS011;68563;45.644;13.782;2024-02-23T08:01:36;8.63;;;2.75;;
79149;SDS011;68563;45.644;13.782;2024-02-23T08:04:02;7.57;;;2.63;;
79149;SDS011;68563;45.644;13.782;2024-02-23T08:06:28;7.88;;;2.42;;
79149;SDS011;68563;45.644;13.782;2024-02-23T08:08:54;10.45;;;2.83;;
79149;SDS011;68563;45.644;13.782;2024-02-23T08:11:20;7.55;;;2.90;;
79149;SDS011;68563;45.644;13.782;2024-02-23T08:13:45;4.90;;;2.85;;
79149;SDS011;68563;45.644;13.782;2024-02-23T08:16:11;5.88;;;2.70;;
79149;SDS011;68563;45.644;13.782;2024-02-23T08:18:36;8.02;;;2.97;;
79149;SDS011;68563;45.644;13.782;2024-02-23T08:21:02;11.02;;;3.05;;
79149;SDS011;68563;45.644;13.782;2024-02-23T08:23:28;7.80;;;2.72;;
79149;SDS011;68563;45.644;13.782;2024-02-23T08:25:55;6.65;;;2.60;;
79149;SDS011;68563;45.644;13.782;2024-02-23T08:28:22;7.13;;;2.88;;
79149;SDS011;68563;45.644;13.782;2024-02-23T08:30:48;7.75;;;2.90;;
79149;SDS011;68563;45.644;13.782;2024-02-23T08:33:13;6.88;;;3.03;;
79149;SDS011;68563;45.644;13.782;2024-02-23T08:35:39;9.52;;;3.15;;
79149;SDS011;68563;45.644;13.782;2024-02-23T08:38:05;10.23;;;3.50;;
79149;SDS011;68563;45.644;13.782;2024-02-23T08:40:30;8.80;;;3.13;;
79149;SDS011;68563;45.644;13.782;2024-02-23T08:42:55;5.93;;;2.50;;
79149;SDS011;68563;45.644;13.782;2024-02-23T08:45:21;6.57;;;2.85;;
79149;SDS011;68563;45.644;13.782;2024-02-23T08:47:46;6.40;;;3.05;;
79149;SDS011;68563;45.644;13.782;2024-02-23T08:50:12;8.57;;;3.05;;
79149;SDS011;68563;45.644;13.782;2024-02-23T08:52:37;7.88;;;3.10;;
79149;SDS011;68563;45.644;13.782;2024-02-23T08:55:03;7.25;;;3.00;;
79149;SDS011;68563;45.644;13.782;2024-02-23T08:57:29;5.38;;;2.95;;
79149;SDS011;68563;45.644;13.782;2024-02-23T08:59:54;8.60;;;2.83;;
79149;SDS011;68563;45.644;13.782;2024-02-23T09:02:22;9.38;;;3.17;;
79149;SDS011;68563;45.644;13.782;2024-02-23T09:04:48;7.45;;;2.70;;
79149;SDS011;68563;45.644;13.782;2024-02-23T09:07:13;9.30;;;3.17;;
79149;SDS011;68563;45.644;13.782;2024-02-23T09:09:39;7.00;;;2.90;;
79149;SDS011;68563;45.644;13.782;2024-02-23T09:12:05;9.20;;;3.13;;
79149;SDS011;68563;45.644;13.782;2024-02-23T09:14:32;9.38;;;2.97;;
79149;SDS011;68563;45.644;13.782;2024-02-23T09:16:58;8.05;;;2.75;;
79149;SDS011;68563;45.644;13.782;2024-02-23T09:19:24;10.52;;;2.97;;
79149;SDS011;68563;45.644;13.782;2024-02-23T09:21:49;7.43;;;2.83;;
79149;SDS011;68563;45.644;13.782;2024-02-23T09:24:14;10.27;;;2.65;;
79149;SDS011;68563;45.644;13.782;2024-02-23T09:26:40;7.95;;;2.78;;
79149;SDS011;68563;45.644;13.782;2024-02-23T09:29:05;6.35;;;2.70;;
79149;SDS011;68563;45.644;13.782;2024-02-23T09:31:31;6.40;;;2.88;;
79149;SDS011;68563;45.644;13.782;2024-02-23T09:33:57;16.80;;;3.65;;
79149;SDS011;68563;45.644;13.782;2024-02-23T09:36:23;8.48;;;2.90;;
79149;SDS011;68563;45.644;13.782;2024-02-23T09:38:49;7.28;;;3.05;;
79149;SDS011;68563;45.644;13.782;2024-02-23T09:41:19;12.00;;;3.10;;
79149;SDS011;68563;45.644;13.782;2024-02-23T09:43:48;8.50;;;2.88;;
79149;SDS011;68563;45.644;13.782;2024-02-23T09:46:15;9.15;;;3.10;;
79149;SDS011;68563;45.644;13.782;2024-02-23T09:48:42;11.82;;;3.33;;
79149;SDS011;68563;45.644;13.782;2024-02-23T09:51:09;7.03;;;3.03;;
79149;SDS011;68563;45.644;13.782;2024-02-23T09:53:36;7.05;;;2.75;;
79149;SDS011;68563;45.644;13.782;2024-02-23T09:56:03;7.15;;;3.10;;
79149;SDS011;68563;45.644;13.782;2024-02-23T09:58:29;8.13;;;3.55;;
79149;SDS011;68563;45.644;13.782;2024-02-23T10:00:57;5.80;;;2.92;;
79149;SDS011;68563;45.644;13.782;2024-02-23T10:03:27;6.93;;;2.97;;
79149;SDS011;68563;45.644;13.782;2024-02-23T10:05:55;10.75;;;3.70;;
79149;SDS011;68563;45.644;13.782;2024-02-23T10:08:21;10.20;;;3.40;;
79149;SDS011;68563;45.644;13.782;2024-02-23T10:10:46;10.65;;;3.58;;
79149;SDS011;68563;45.644;13.782;2024-02-23T10:13:18;10.30;;;3.30;;
79149;SDS011;68563;45.644;13.782;2024-02-23T10:15:46;10.18;;;3.28;;
79149;SDS011;68563;45.644;13.782;2024-02-23T10:18:12;7.88;;;3.13;;
79149;SDS011;68563;45.644;13.782;2024-02-23T10:20:38;9.75;;;3.45;;
79149;SDS011;68563;45.644;13.782;2024-02-23T10:23:04;9.30;;;3.42;;
79149;SDS011;68563;45.644;13.782;2024-02-23T10:25:29;8.60;;;3.40;;
79149;SDS011;68563;45.644;13.782;2024-02-23T10:27:55;10.57;;;3.38;;
79149;SDS011;68563;45.644;13.782;2024-02-23T10:30:20;9.98;;;3.13;;
79149;SDS011;68563;45.644;13.782;2024-02-23T10:32:46;13.13;;;3.95;;
79149;SDS011;68563;45.644;13.782;2024-02-23T10:35:15;10.90;;;3.47;;
79149;SDS011;68563;45.644;13.782;2024-02-23T10:37:44;9.98;;;3.70;;
79149;SDS011;68563;45.644;13.782;2024-02-23T10:40:15;8.18;;;3.35;;
79149;SDS011;68563;45.644;13.782;2024-02-23T10:42:43;8.65;;;3.08;;
79149;SDS011;68563;45.644;13.782;2024-02-23T10:45:12;8.45;;;3.50;;
79149;SDS011;68563;45.644;13.782;2024-02-23T10:47:38;10.50;;;3.85;;
79149;SDS011;68563;45.644;13.782;2024-02-23T10:50:03;12.25;;;3.97;;
79149;SDS011;68563;45.644;13.782;2024-02-23T10:52:30;13.27;;;4.13;;
79149;SDS011;68563;45.644;13.782;2024-02-23T10:54:56;10.93;;;3.53;;
79149;SDS011;68563;45.644;13.782;2024-02-23T10:57:25;12.00;;;4.30;;
79149;SDS011;68563;45.644;13.782;2024-02-23T10:59:51;9.13;;;3.65;;
79149;SDS011;68563;45.644;13.782;2024-02-23T11:02:18;10.85;;;4.28;;
79149;SDS011;68563;45.644;13.782;2024-02-23T11:04:46;10.75;;;4.03;;
79149;SDS011;68563;45.644;13.782;2024-02-23T11:09:41;9.18;;;3.53;;
79149;SDS011;68563;45.644;13.782;2024-02-23T11:12:06;10.82;;;4.28;;
79149;SDS011;68563;45.644;13.782;2024-02-23T11:14:38;11.48;;;3.97;;
79149;SDS011;68563;45.644;13.782;2024-02-23T11:17:04;10.60;;;4.05;;
79149;SDS011;68563;45.644;13.782;2024-02-23T11:19:33;9.35;;;4.35;;
79149;SDS011;68563;45.644;13.782;2024-02-23T11:21:59;9.75;;;3.97;;
79149;SDS011;68563;45.644;13.782;2024-02-23T11:24:28;13.43;;;3.83;;
79149;SDS011;68563;45.644;13.782;2024-02-23T11:26:57;12.65;;;4.68;;
79149;SDS011;68563;45.644;13.782;2024-02-23T11:29:25;15.07;;;4.53;;
79149;SDS011;68563;45.644;13.782;2024-02-23T11:31:52;13.57;;;4.38;;
79149;SDS011;68563;45.644;13.782;2024-02-23T11:34:24;10.55;;;4.10;;
79149;SDS011;68563;45.644;13.782;2024-02-23T11:36:52;10.25;;;3.92;;
79149;SDS011;68563;45.644;13.782;2024-02-23T11:39:21;12.48;;;4.53;;
79149;SDS011;68563;45.644;13.782;2024-02-23T11:41:50;10.27;;;4.22;;
79149;SDS011;68563;45.644;13.782;2024-02-23T11:44:16;8.95;;;4.38;;
79149;SDS011;68563;45.644;13.782;2024-02-23T11:46:42;9.63;;;4.70;;
79149;SDS011;68563;45.644;13.782;2024-02-23T11:49:10;9.52;;;4.07;;
79149;SDS011;68563;45.644;13.782;2024-02-23T11:51:35;11.30;;;4.35;;
79149;SDS011;68563;45.644;13.782;2024-02-23T11:54:01;16.52;;;4.30;;
79149;SDS011;68563;45.644;13.782;2024-02-23T11:56:28;11.38;;;4.40;;
79149;SDS011;68563;45.644;13.782;2024-02-23T11:58:54;15.02;;;4.38;;
79149;SDS011;68563;45.644;13.782;2024-02-23T12:01:20;9.77;;;4.18;;
79149;SDS011;68563;45.644;13.782;2024-02-23T12:03:46;11.55;;;4.68;;
79149;SDS011;68563;45.644;13.782;2024-02-23T12:06:11;12.13;;;4.63;;
79149;SDS011;68563;45.644;13.782;2024-02-23T12:08:40;10.52;;;4.30;;
79149;SDS011;68563;45.644;13.782;2024-02-23T12:11:06;14.23;;;4.68;;
79149;SDS011;68563;45.644;13.782;2024-02-23T12:13:34;11.63;;;4.38;;
79149;SDS011;68563;45.644;13.782;2024-02-23T12:16:01;18.08;;;4.50;;
79149;SDS011;68563;45.644;13.782;2024-02-23T12:18:27;13.48;;;4.45;;
79149;SDS011;68563;45.644;13.782;2024-02-23T12:20:58;15.38;;;4.90;;
79149;SDS011;68563;45.644;13.782;2024-02-23T12:23:25;11.82;;;4.78;;
79149;SDS011;68563;45.644;13.782;2024-02-23T12:25:54;15.95;;;5.18;;
79149;SDS011;68563;45.644;13.782;2024-02-23T12:28:22;16.00;;;4.65;;
79149;SDS011;68563;45.644;13.782;2024-02-23T12:30:57;14.27;;;5.20;;
79149;SDS011;68563;45.644;13.782;2024-02-23T12:33:32;13.00;;;4.60;;
79149;SDS011;68563;45.644;13.782;2024-02-23T12:36:02;13.80;;;4.57;;
79149;SDS011;68563;45.644;13.782;2024-02-23T12:38:28;11.70;;;4.55;;
79149;SDS011;68563;45.644;13.782;2024-02-23T12:40:54;12.10;;;4.85;;
79149;SDS011;68563;45.644;13.782;2024-02-23T12:43:20;15.98;;;5.18;;
79149;SDS011;68563;45.644;13.782;2024-02-23T12:45:47;11.02;;;4.15;;
79149;SDS011;68563;45.644;13.782;2024-02-23T12:48:16;17.05;;;4.80;;
79149;SDS011;68563;45.644;13.782;2024-02-23T12:50:42;17.08;;;5.10;;
79149;SDS011;68563;45.644;13.782;2024-02-23T12:53:09;14.07;;;4.85;;
79149;SDS011;68563;45.644;13.782;2024-02-23T12:55:35;14.27;;;4.45;;
79149;SDS011;68563;45.644;13.782;2024-02-23T12:58:02;16.05;;;5.13;;
79149;SDS011;68563;45.644;13.782;2024-02-23T13:00:27;17.75;;;5.35;;
79149;SDS011;68563;45.644;13.782;2024-02-23T13:02:53;11.15;;;4.80;;
79149;SDS011;68563;45.644;13.782;2024-02-23T13:05:19;13.10;;;5.13;;
79149;SDS011;68563;45.644;13.782;2024-02-23T13:07:44;15.60;;;5.95;;
79149;SDS011;68563;45.644;13.782;2024-02-23T13:10:11;20.70;;;5.80;;
79149;SDS011;68563;45.644;13.782;2024-02-23T13:12:36;12.18;;;5.15;;
79149;SDS011;68563;45.644;13.782;2024-02-23T13:15:02;13.82;;;4.70;;
79149;SDS011;68563;45.644;13.782;2024-02-23T13:17:27;14.98;;;4.80;;
79149;SDS011;68563;45.644;13.782;2024-02-23T13:19:53;12.63;;;5.18;;
79149;SDS011;68563;45.644;13.782;2024-02-23T13:22:19;20.08;;;6.20;;
79149;SDS011;68563;45.644;13.782;2024-02-23T13:24:44;15.00;;;5.55;;
79149;SDS011;68563;45.644;13.782;2024-02-23T13:27:10;12.90;;;5.13;;
79149;SDS011;68563;45.644;13.782;2024-02-23T13:29:35;14.48;;;5.32;;
79149;SDS011;68563;45.644;13.782;2024-02-23T13:32:01;19.30;;;5.40;;
79149;SDS011;68563;45.644;13.782;2024-02-23T13:34:26;14.15;;;5.65;;
79149;SDS011;68563;45.644;13.782;2024-02-23T13:36:51;19.48;;;5.35;;
79149;SDS011;68563;45.644;13.782;2024-02-23T13:39:17;17.58;;;5.28;;
79149;SDS011;68563;45.644;13.782;2024-02-23T13:41:43;10.90;;;4.88;;
79149;SDS011;68563;45.644;13.782;2024-02-23T13:44:08;11.30;;;5.07;;
79149;SDS011;68563;45.644;13.782;2024-02-23T13:46:39;17.15;;;5.30;;
79149;SDS011;68563;45.644;13.782;2024-02-23T13:49:06;9.75;;;4.80;;
79149;SDS011;68563;45.644;13.782;2024-02-23T13:51:33;16.58;;;5.60;;
79149;SDS011;68563;45.644;13.782;2024-02-23T13:53:59;11.98;;;5.03;;
79149;SDS011;68563;45.644;13.782;2024-02-23T13:56:24;18.67;;;5.78;;
79149;SDS011;68563;45.644;13.782;2024-02-23T13:58:50;14.43;;;5.70;;
79149;SDS011;68563;45.644;13.782;2024-02-23T14:01:15;14.13;;;5.45;;
79149;SDS011;68563;45.644;13.782;2024-02-23T14:03:41;15.25;;;5.93;;
79149;SDS011;68563;45.644;13.782;2024-02-23T14:06:06;16.17;;;5.63;;
79149;SDS011;68563;45.644;13.782;2024-02-23T14:08:32;11.68;;;4.70;;
79149;SDS011;68563;45.644;13.782;2024-02-23T14:11:02;13.68;;;5.38;;
79149;SDS011;68563;45.644;13.782;2024-02-23T14:13:30;11.57;;;5.60;;
79149;SDS011;68563;45.644;13.782;2024-02-23T14:15:56;13.70;;;5.35;;
79149;SDS011;68563;45.644;13.782;2024-02-23T14:18:21;11.27;;;4.82;;
79149;SDS011;68563;45.644;13.782;2024-02-23T14:20:47;13.25;;;5.10;;
79149;SDS011;68563;45.644;13.782;2024-02-23T14:23:12;13.25;;;5.38;;
79149;SDS011;68563;45.644;13.782;2024-02-23T14:25:39;14.10;;;5.50;;